createdAt,value
2018-03-19T00:00:05.102Z,98128.34
2018-03-19T00:02:33.380Z,98130.03
2018-03-19T00:05:01.681Z,98130.50
2018-03-19T00:07:29.980Z,98128.48
2018-03-19T00:09:58.289Z,98130.21
2018-03-19T00:12:26.585Z,98129.36
2018-03-19T00:14:54.868Z,98131.88
2018-03-19T00:17:23.123Z,98128.28
2018-03-19T00:19:51.438Z,98132.09
2018-03-19T00:22:19.766Z,98134.05
2018-03-19T00:24:48.041Z,98128.44
2018-03-19T00:27:16.307Z,98127.33
2018-03-19T00:29:44.582Z,98129.72
2018-03-19T00:32:12.854Z,98122.86
2018-03-19T00:34:41.154Z,98126.16
2018-03-19T00:37:09.447Z,98125.02
2018-03-19T00:39:37.736Z,98123.80
2018-03-19T00:42:05.992Z,98124.34
2018-03-19T00:44:34.275Z,98121.94
2018-03-19T00:47:02.554Z,98120.59
2018-03-19T00:49:30.815Z,98125.91
2018-03-19T00:51:59.099Z,98098.77
2018-03-19T00:54:27.379Z,98122.04
2018-03-19T00:56:55.686Z,98097.57
2018-03-19T00:59:23.959Z,98124.08
2018-03-19T01:01:52.279Z,98127.86
2018-03-19T01:04:20.590Z,98122.59
2018-03-19T01:06:49.515Z,98126.44
2018-03-19T01:09:17.772Z,98121.56
2018-03-19T01:11:46.063Z,98125.14
2018-03-19T01:14:14.327Z,98127.18
2018-03-19T01:16:42.627Z,98109.98
2018-03-19T01:19:10.905Z,98123.89
2018-03-19T01:21:39.192Z,98120.98
2018-03-19T01:24:07.804Z,98121.22
2018-03-19T01:26:36.281Z,98126.08
2018-03-19T01:29:04.559Z,98131.40
2018-03-19T01:31:32.843Z,98117.44
2018-03-19T01:34:01.106Z,98123.81
2018-03-19T01:36:29.367Z,98124.79
2018-03-19T01:38:57.662Z,98127.05
2018-03-19T01:41:25.937Z,98125.61
2018-03-19T01:43:54.216Z,98125.94
2018-03-19T01:46:22.492Z,98122.25
2018-03-19T01:48:50.784Z,98121.52
2018-03-19T01:51:19.046Z,98122.94
2018-03-19T01:53:47.327Z,98119.47
2018-03-19T01:56:15.630Z,98121.22
2018-03-19T01:58:43.907Z,98123.47
2018-03-19T02:01:12.167Z,98117.08
2018-03-19T02:03:40.480Z,98123.11
2018-03-19T02:06:08.739Z,98117.98
2018-03-19T02:08:37.028Z,98123.03
2018-03-19T02:11:05.276Z,98129.12
2018-03-19T02:13:33.552Z,98115.59
2018-03-19T02:16:01.815Z,98121.20
2018-03-19T02:18:30.104Z,98122.64
2018-03-19T02:20:58.347Z,98114.40
2018-03-19T02:23:26.659Z,98113.55
2018-03-19T02:25:54.916Z,98114.69
2018-03-19T02:28:23.202Z,98115.34
2018-03-19T02:30:51.468Z,98120.22
2018-03-19T02:33:19.748Z,98107.34
2018-03-19T02:35:48.008Z,98104.81
2018-03-19T02:38:16.310Z,98105.73
2018-03-19T02:40:44.583Z,98105.88
2018-03-19T02:43:12.850Z,98105.54
2018-03-19T02:45:41.136Z,98104.68
2018-03-19T02:48:09.415Z,98106.53
2018-03-19T02:50:37.696Z,98100.62
2018-03-19T02:53:05.974Z,98100.59
2018-03-19T02:55:34.260Z,98101.91
2018-03-19T02:58:02.518Z,98096.30
2018-03-19T03:00:30.843Z,98102.44
2018-03-19T03:02:59.076Z,98088.83
2018-03-19T03:05:27.367Z,98108.33
2018-03-19T03:07:55.640Z,98107.09
2018-03-19T03:10:23.920Z,98101.72
2018-03-19T03:12:52.176Z,98103.44
2018-03-19T03:15:20.455Z,98108.23
2018-03-19T03:17:48.724Z,98110.56
2018-03-19T03:20:17.003Z,98104.02
2018-03-19T03:22:45.276Z,97973.05
2018-03-19T03:25:13.596Z,98108.70
2018-03-19T03:27:41.860Z,98111.37
2018-03-19T03:30:10.180Z,98106.41
2018-03-19T03:32:38.460Z,98113.91
2018-03-19T03:35:06.758Z,98114.09
2018-03-19T03:37:35.055Z,98119.34
2018-03-19T03:40:03.292Z,98119.22
2018-03-19T03:42:31.611Z,98119.52
2018-03-19T03:44:59.873Z,98117.90
2018-03-19T03:47:28.161Z,98114.23
2018-03-19T03:49:56.436Z,98122.78
2018-03-19T03:52:24.716Z,98108.38
2018-03-19T03:54:52.979Z,98115.64
2018-03-19T03:57:21.268Z,98108.48
2018-03-19T03:59:49.538Z,98113.20
2018-03-19T04:02:17.839Z,98111.14
2018-03-19T04:04:46.230Z,98104.11
2018-03-19T04:07:14.620Z,98108.50
2018-03-19T04:09:42.915Z,98107.41
2018-03-19T04:12:11.210Z,98114.80
2018-03-19T04:14:39.477Z,98103.84
2018-03-19T04:17:07.762Z,98101.19
2018-03-19T04:19:36.025Z,98102.39
2018-03-19T04:22:05.172Z,98102.29
2018-03-19T04:24:33.441Z,98103.73
2018-03-19T04:27:01.739Z,98109.59
2018-03-19T04:29:30.022Z,98107.16
2018-03-19T04:31:58.333Z,98111.05
2018-03-19T04:34:26.590Z,98108.42
2018-03-19T04:36:54.855Z,98114.64
2018-03-19T04:39:23.252Z,98109.53
2018-03-19T04:41:51.522Z,98112.03
2018-03-19T04:44:19.812Z,98114.67
2018-03-19T04:46:48.097Z,98111.92
2018-03-19T04:49:16.392Z,98108.11
2018-03-19T04:51:44.660Z,98110.16
2018-03-19T04:54:12.953Z,98107.64
2018-03-19T04:56:41.220Z,98112.70
2018-03-19T04:59:09.511Z,98106.78
2018-03-19T05:01:37.774Z,98110.65
2018-03-19T05:04:06.066Z,98108.65
2018-03-19T05:06:34.323Z,98117.34
2018-03-19T05:09:02.619Z,98119.44
2018-03-19T05:11:30.887Z,98116.59
2018-03-19T05:13:59.209Z,98124.14
2018-03-19T05:16:27.474Z,98126.73
2018-03-19T05:18:55.775Z,98128.41
2018-03-19T05:21:24.154Z,98130.23
2018-03-19T05:23:52.444Z,98131.85
2018-03-19T05:26:21.525Z,98137.47
2018-03-19T05:28:49.817Z,98133.55
2018-03-19T05:31:18.192Z,98136.17
2018-03-19T05:33:46.498Z,98142.89
2018-03-19T05:36:14.782Z,98145.25
2018-03-19T05:38:43.130Z,98141.55
2018-03-19T05:41:11.395Z,98142.50
2018-03-19T05:43:39.669Z,98147.09
2018-03-19T05:46:07.978Z,98147.74
2018-03-19T05:48:36.258Z,98148.23
2018-03-19T05:51:05.092Z,98157.55
2018-03-19T05:53:33.367Z,98157.66
2018-03-19T05:56:01.645Z,98158.81
2018-03-19T05:58:29.929Z,98158.05
2018-03-19T06:00:58.222Z,98159.23
2018-03-19T06:03:26.476Z,98163.43
2018-03-19T06:05:54.769Z,98164.11
2018-03-19T06:08:23.044Z,98164.08
2018-03-19T06:10:52.086Z,98163.45
2018-03-19T06:13:20.391Z,98165.63
2018-03-19T06:15:48.664Z,98166.70
2018-03-19T06:18:16.939Z,98169.75
2018-03-19T06:20:45.275Z,98173.92
2018-03-19T06:23:13.580Z,98173.50
2018-03-19T06:25:41.876Z,98171.65
2018-03-19T06:28:10.158Z,98183.42
2018-03-19T06:30:38.507Z,98172.15
2018-03-19T06:33:06.801Z,98183.77
2018-03-19T06:35:35.076Z,98183.70
2018-03-19T06:38:04.096Z,98185.45
2018-03-19T06:40:32.452Z,98183.23
2018-03-19T06:43:00.796Z,98187.09
2018-03-19T06:45:29.055Z,98193.52
2018-03-19T06:47:57.348Z,98188.52
2018-03-19T06:50:25.637Z,98190.97
2018-03-19T06:52:54.012Z,98196.34
2018-03-19T06:55:22.288Z,98199.19
2018-03-19T06:57:50.583Z,98201.20
2018-03-19T07:02:53.362Z,98205.93
2018-03-19T07:05:21.705Z,98205.93
2018-03-19T07:07:49.991Z,98210.17
2018-03-19T07:10:18.261Z,98210.80
2018-03-19T07:12:46.557Z,98208.18
2018-03-19T07:15:14.865Z,98209.75
2018-03-19T07:17:43.150Z,98212.41
2018-03-19T07:20:11.391Z,98216.23
2018-03-19T07:22:40.396Z,98215.20
2018-03-19T07:25:08.664Z,98201.48
2018-03-19T07:27:37.020Z,98210.83
2018-03-19T07:30:05.260Z,98214.55
2018-03-19T07:32:33.568Z,98210.70
2018-03-19T07:35:01.835Z,98208.95
2018-03-19T07:37:30.178Z,98211.55
2018-03-19T07:39:58.466Z,98217.59
2018-03-19T07:42:26.735Z,98212.47
2018-03-19T07:44:55.083Z,98216.66
2018-03-19T07:47:23.383Z,98222.55
2018-03-19T07:49:51.723Z,98217.42
2018-03-19T07:52:19.989Z,98217.98
2018-03-19T07:54:49.186Z,98220.80
2018-03-19T07:57:17.520Z,98225.34
2018-03-19T07:59:45.932Z,98207.11
2018-03-19T08:02:14.230Z,98227.58
2018-03-19T08:04:42.499Z,98232.42
2018-03-19T08:07:10.796Z,98230.59
2018-03-19T08:09:39.092Z,98232.61
2018-03-19T08:12:07.537Z,98230.00
2018-03-19T08:14:35.854Z,98232.86
2018-03-19T08:17:05.177Z,98233.84
2018-03-19T08:19:33.464Z,98222.69
2018-03-19T08:22:01.785Z,98229.69
2018-03-19T08:24:30.140Z,98228.69
2018-03-19T08:27:08.069Z,98229.81
2018-03-19T08:29:36.415Z,98234.16
2018-03-19T08:32:05.004Z,98223.19
2018-03-19T08:34:33.409Z,98230.98
2018-03-19T08:37:02.572Z,98233.92
2018-03-19T08:39:30.932Z,98229.77
2018-03-19T08:41:59.223Z,98232.66
2018-03-19T08:44:27.598Z,98230.57
2018-03-19T08:46:55.950Z,98229.81
2018-03-19T08:49:24.301Z,98235.25
2018-03-19T08:51:52.612Z,98231.46
2018-03-19T08:54:20.868Z,98235.28
2018-03-19T08:56:49.171Z,98231.34
2018-03-19T08:59:17.427Z,98235.45
2018-03-19T09:01:45.732Z,98232.19
2018-03-19T09:04:14.059Z,98237.35
2018-03-19T09:06:42.351Z,98232.66
2018-03-19T09:09:10.663Z,98233.64
2018-03-19T09:11:39.004Z,98245.02
2018-03-19T09:14:07.343Z,98236.92
2018-03-19T09:16:35.659Z,98238.61
2018-03-19T09:19:04.416Z,98241.44
2018-03-19T09:21:32.748Z,98236.02
2018-03-19T09:24:01.148Z,98243.05
2018-03-19T09:26:29.467Z,98239.92
2018-03-19T09:28:57.841Z,98236.17
2018-03-19T09:31:26.148Z,98242.16
2018-03-19T09:33:54.632Z,98243.69
2018-03-19T09:36:22.891Z,98251.48
2018-03-19T09:38:51.181Z,98254.14
2018-03-19T09:41:19.533Z,98254.08
2018-03-19T09:43:47.822Z,98258.55
2018-03-19T09:46:16.169Z,98266.57
2018-03-19T09:48:44.573Z,98268.48
2018-03-19T09:51:18.478Z,98261.98
2018-03-19T09:53:46.808Z,98268.87
2018-03-19T09:56:15.051Z,98264.59
2018-03-19T09:58:43.358Z,98268.23
2018-03-19T10:01:11.624Z,98275.88
2018-03-19T10:03:39.921Z,98274.77
2018-03-19T10:06:08.208Z,98268.64
2018-03-19T10:08:36.517Z,98265.06
2018-03-19T10:11:05.052Z,98256.13
2018-03-19T10:13:33.357Z,98264.19
2018-03-19T10:16:01.633Z,98269.89
2018-03-19T10:18:30.263Z,98267.73
2018-03-19T10:20:58.567Z,98265.39
2018-03-19T10:23:26.844Z,98261.28
2018-03-19T10:25:55.112Z,98267.17
2018-03-19T10:28:23.417Z,98270.77
2018-03-19T10:30:52.027Z,98270.14
2018-03-19T10:33:20.353Z,98268.24
2018-03-19T10:35:48.607Z,98270.52
2018-03-19T10:38:16.932Z,98274.41
2018-03-19T10:40:45.210Z,98273.17
2018-03-19T10:43:13.480Z,98267.89
2018-03-19T10:45:41.838Z,98267.11
2018-03-19T10:48:10.217Z,98273.82
2018-03-19T10:50:38.541Z,98276.25
2018-03-19T10:53:06.796Z,98273.84
2018-03-19T10:55:35.135Z,98274.70
2018-03-19T10:58:03.397Z,98267.02
2018-03-19T11:00:31.728Z,98266.72
2018-03-19T11:03:05.780Z,98265.63
2018-03-19T11:05:39.692Z,98265.86
2018-03-19T11:08:08.946Z,98262.34
2018-03-19T11:10:37.266Z,98245.41
2018-03-19T11:13:05.869Z,98263.35
2018-03-19T11:15:34.196Z,98250.23
2018-03-19T11:18:02.499Z,98267.48
2018-03-19T11:20:30.851Z,98262.30
2018-03-19T11:22:59.103Z,98265.63
2018-03-19T11:25:27.407Z,98262.58
2018-03-19T11:27:56.651Z,98270.50
2018-03-19T11:30:25.200Z,98260.66
2018-03-19T11:32:53.506Z,98269.09
2018-03-19T11:35:21.844Z,98265.01
2018-03-19T11:37:50.142Z,98267.12
2018-03-19T11:40:18.436Z,98256.59
2018-03-19T11:42:46.800Z,98264.25
2018-03-19T11:45:15.059Z,98266.86
2018-03-19T11:47:43.356Z,98255.10
2018-03-19T11:50:11.712Z,98254.45
2018-03-19T11:52:40.778Z,98251.67
2018-03-19T11:55:09.057Z,98250.77
2018-03-19T11:57:38.182Z,98250.53
2018-03-19T12:00:06.469Z,98257.45
2018-03-19T12:02:35.080Z,98241.35
2018-03-19T12:05:03.367Z,98254.59
2018-03-19T12:07:31.671Z,98253.84
2018-03-19T12:09:59.946Z,98259.67
2018-03-19T12:12:28.238Z,98253.23
2018-03-19T12:14:56.538Z,98253.50
2018-03-19T12:17:24.844Z,98263.30
2018-03-19T12:19:53.112Z,98262.84
2018-03-19T12:22:21.403Z,98269.67
2018-03-19T12:24:49.672Z,98285.33
2018-03-19T12:27:17.955Z,98272.94
2018-03-19T12:29:46.288Z,98274.95
2018-03-19T12:32:14.667Z,98267.96
2018-03-19T12:34:43.081Z,98261.91
2018-03-19T12:37:11.403Z,98258.64
2018-03-19T12:39:39.685Z,98258.27
2018-03-19T12:42:07.928Z,98260.92
2018-03-19T12:44:36.243Z,98268.94
2018-03-19T12:47:05.604Z,98273.27
2018-03-19T12:49:33.951Z,98272.14
2018-03-19T12:52:02.873Z,98276.61
2018-03-19T12:54:31.223Z,98264.28
2018-03-19T12:57:00.188Z,98271.69
2018-03-19T12:59:28.523Z,98283.55
2018-03-19T13:01:56.791Z,98286.11
2018-03-19T13:04:25.078Z,98288.56
2018-03-19T13:06:53.342Z,98287.31
2018-03-19T13:09:21.639Z,98284.19
2018-03-19T13:11:50.439Z,98285.54
2018-03-19T13:14:18.766Z,98288.57
2018-03-19T13:16:47.027Z,98289.30
2018-03-19T13:19:15.343Z,98296.75
2018-03-19T13:21:43.619Z,98286.78
2018-03-19T13:24:11.895Z,98285.59
2018-03-19T13:26:40.164Z,98284.21
2018-03-19T13:29:08.460Z,98288.67
2018-03-19T13:31:36.745Z,98290.02
2018-03-19T13:34:05.378Z,98291.47
2018-03-19T13:36:33.630Z,98290.83
2018-03-19T13:39:01.983Z,98291.25
2018-03-19T13:41:31.080Z,98290.81
2018-03-19T13:43:59.404Z,98286.59
2018-03-19T13:46:28.628Z,98288.73
2018-03-19T13:48:56.910Z,98285.48
2018-03-19T13:51:25.209Z,98292.27
2018-03-19T13:53:53.516Z,98295.60
2018-03-19T13:56:21.825Z,98287.73
2018-03-19T13:58:50.103Z,98295.22
2018-03-19T14:01:18.415Z,98292.57
2018-03-19T14:03:46.679Z,98289.50
2018-03-19T14:06:14.980Z,98287.56
2018-03-19T14:08:43.236Z,98290.91
2018-03-19T14:11:11.550Z,98288.76
2018-03-19T14:13:39.812Z,98291.87
2018-03-19T14:16:08.566Z,98275.48
2018-03-19T14:18:36.851Z,98282.86
2018-03-19T14:21:05.393Z,98286.75
2018-03-19T14:23:33.710Z,98288.70
2018-03-19T14:26:02.000Z,98292.39
2018-03-19T14:28:30.325Z,98288.48
2018-03-19T14:30:58.608Z,98285.50
2018-03-19T14:33:26.915Z,98280.11
2018-03-19T14:35:55.241Z,98282.17
2018-03-19T14:38:23.501Z,98284.62
2018-03-19T14:40:51.780Z,98280.78
2018-03-19T14:43:20.088Z,98282.36
2018-03-19T14:45:48.398Z,98280.84
2018-03-19T14:48:16.698Z,98290.11
2018-03-19T14:50:45.070Z,98289.20
2018-03-19T14:53:13.315Z,98288.52
2018-03-19T14:55:41.911Z,98289.56
2018-03-19T14:58:10.219Z,98293.69
2018-03-19T15:00:38.497Z,98284.23
2018-03-19T15:03:06.832Z,98293.94
2018-03-19T15:05:35.202Z,98281.22
2018-03-19T15:08:03.456Z,98283.41
2018-03-19T15:10:31.735Z,98294.43
2018-03-19T15:13:00.058Z,98284.95
2018-03-19T15:15:28.341Z,98282.88
2018-03-19T15:17:56.645Z,98281.69
2018-03-19T15:20:25.593Z,98281.45
2018-03-19T15:22:53.878Z,98288.52
2018-03-19T15:25:22.552Z,98285.73
2018-03-19T15:27:55.956Z,98284.73
2018-03-19T15:30:24.200Z,98282.28
2018-03-19T15:32:52.540Z,98283.39
2018-03-19T15:35:20.829Z,98286.41
2018-03-19T15:37:49.112Z,98285.89
2018-03-19T15:40:18.373Z,98280.11
2018-03-19T15:42:46.692Z,98282.65
2018-03-19T15:45:14.985Z,98286.59
2018-03-19T15:47:43.266Z,98281.28
2018-03-19T15:50:11.553Z,98285.89
2018-03-19T15:52:40.246Z,98291.07
2018-03-19T15:55:08.591Z,98289.36
2018-03-19T15:57:36.904Z,98284.44
2018-03-19T16:00:05.343Z,98287.77
2018-03-19T16:02:33.655Z,98293.98
2018-03-19T16:05:01.977Z,98294.66
2018-03-19T16:07:30.240Z,98276.27
2018-03-19T16:09:58.560Z,98296.33
2018-03-19T16:12:27.485Z,98303.03
2018-03-19T16:14:55.808Z,98302.70
2018-03-19T16:17:24.040Z,98305.54
2018-03-19T16:19:52.342Z,98300.62
2018-03-19T16:22:20.587Z,98299.55
2018-03-19T16:24:48.881Z,98292.36
2018-03-19T16:27:17.274Z,98306.12
2018-03-19T16:29:45.483Z,98310.68
2018-03-19T16:32:13.797Z,98312.23
2018-03-19T16:34:42.143Z,98311.83
2018-03-19T16:37:10.425Z,98320.84
2018-03-19T16:39:39.205Z,98310.13
2018-03-19T16:42:07.585Z,98313.88
2018-03-19T16:44:35.854Z,98328.81
2018-03-19T16:47:04.486Z,98300.72
2018-03-19T16:49:32.788Z,98327.05
2018-03-19T16:52:01.072Z,98331.58
2018-03-19T16:54:29.330Z,98328.09
2018-03-19T16:56:57.636Z,98335.06
2018-03-19T16:59:25.927Z,98341.84
2018-03-19T17:01:54.239Z,98349.27
2018-03-19T17:04:22.506Z,98346.51
2018-03-19T17:06:50.814Z,98348.38
2018-03-19T17:09:19.073Z,98345.40
2018-03-19T17:11:47.388Z,98346.14
2018-03-19T17:14:15.737Z,98337.96
2018-03-19T17:16:44.105Z,98343.13
2018-03-19T17:19:12.369Z,98353.28
2018-03-19T17:21:40.692Z,98359.22
2018-03-19T17:24:09.312Z,98356.37
2018-03-19T17:26:37.603Z,98353.61
2018-03-19T17:29:05.925Z,98363.06
2018-03-19T17:31:34.231Z,98365.80
2018-03-19T17:34:02.504Z,98357.12
2018-03-19T17:36:30.810Z,98374.12
2018-03-19T17:38:59.111Z,98368.77
2018-03-19T17:41:27.432Z,98371.05
2018-03-19T17:43:55.757Z,98377.69
2018-03-19T17:46:24.080Z,98377.41
2018-03-19T17:48:52.435Z,98381.55
2018-03-19T17:51:20.683Z,98392.05
2018-03-19T17:53:49.014Z,98390.38
2018-03-19T17:56:17.323Z,98384.49
2018-03-19T17:58:45.614Z,98387.28
2018-03-19T18:01:13.881Z,98388.27
2018-03-19T18:03:42.180Z,98391.38
2018-03-19T18:06:10.500Z,98390.34
2018-03-19T18:08:38.771Z,98400.75
2018-03-19T18:11:07.042Z,98397.11
2018-03-19T18:13:35.348Z,98401.96
2018-03-19T18:16:03.612Z,98397.77
2018-03-19T18:18:32.143Z,98409.03
2018-03-19T18:21:00.961Z,98416.11
2018-03-19T18:23:29.249Z,98411.98
2018-03-19T18:25:57.592Z,98411.38
2018-03-19T18:28:25.903Z,98411.20
2018-03-19T18:30:54.194Z,98413.87
2018-03-19T18:33:23.409Z,98419.45
2018-03-19T18:35:51.658Z,98417.93
2018-03-19T18:38:19.960Z,98427.94
2018-03-19T18:40:48.316Z,98431.83
2018-03-19T18:43:16.763Z,98434.95
2018-03-19T18:45:45.082Z,98421.70
2018-03-19T18:48:13.370Z,98425.80
2018-03-19T18:50:41.674Z,98442.36
2018-03-19T18:53:09.938Z,98444.17
2018-03-19T18:55:38.254Z,98446.44
2018-03-19T18:58:06.516Z,98449.21
2018-03-19T19:00:34.843Z,98448.84
2018-03-19T19:03:03.099Z,98449.21
2018-03-19T19:05:31.400Z,98445.86
2018-03-19T19:07:59.730Z,98453.72
2018-03-19T19:10:28.269Z,98454.95
2018-03-19T19:12:56.547Z,98462.09
2018-03-19T19:15:24.851Z,98462.78
2018-03-19T19:17:53.170Z,98446.95
2018-03-19T19:20:21.545Z,98462.55
2018-03-19T19:22:49.922Z,98478.84
2018-03-19T19:25:18.245Z,98467.59
2018-03-19T19:27:46.534Z,98468.57
2018-03-19T19:30:14.859Z,98466.34
2018-03-19T19:32:43.140Z,98475.09
2018-03-19T19:35:11.432Z,98479.16
2018-03-19T19:37:39.704Z,98479.64
2018-03-19T19:40:07.993Z,98475.16
2018-03-19T19:42:36.264Z,98477.83
2018-03-19T19:45:05.157Z,98476.97
2018-03-19T19:47:33.460Z,98480.14
2018-03-19T19:50:01.732Z,98479.91
2018-03-19T19:52:30.027Z,98479.48
2018-03-19T19:54:58.319Z,98482.78
2018-03-19T19:57:26.603Z,98480.91
2018-03-19T19:59:54.877Z,98483.39
2018-03-19T20:02:23.162Z,98478.51
2018-03-19T20:04:51.436Z,98489.88
2018-03-19T20:07:19.744Z,98491.98
2018-03-19T20:09:48.016Z,98492.52
2018-03-19T20:12:16.300Z,98493.82
2018-03-19T20:14:44.600Z,98495.59
2018-03-19T20:17:12.880Z,98496.38
2018-03-19T20:19:41.160Z,98499.75
2018-03-19T20:22:09.450Z,98504.45
2018-03-19T20:24:37.723Z,98493.16
2018-03-19T20:27:06.009Z,98498.42
2018-03-19T20:29:34.369Z,98503.95
2018-03-19T20:32:02.667Z,98497.17
2018-03-19T20:34:31.013Z,98499.98
2018-03-19T20:36:59.288Z,98505.05
2018-03-19T20:39:27.609Z,98508.13
2018-03-19T20:41:55.877Z,98505.97
2018-03-19T20:44:25.042Z,98507.81
2018-03-19T20:46:53.317Z,98503.36
2018-03-19T20:49:21.608Z,98510.91
2018-03-19T20:51:49.875Z,98511.02
2018-03-19T20:54:18.199Z,98503.97
2018-03-19T20:56:46.518Z,98514.48
2018-03-19T20:59:14.806Z,98510.74
2018-03-19T21:01:43.058Z,98514.55
2018-03-19T21:04:11.349Z,98516.86
2018-03-19T21:06:39.616Z,98514.67
2018-03-19T21:09:07.953Z,98519.67
2018-03-19T21:11:36.208Z,98520.89
2018-03-19T21:14:05.653Z,98525.20
2018-03-19T21:16:33.935Z,98521.98
2018-03-19T21:19:02.229Z,98529.72
2018-03-19T21:21:30.556Z,98528.28
2018-03-19T21:23:58.831Z,98537.72
2018-03-19T21:26:27.159Z,98526.77
2018-03-19T21:28:55.453Z,98525.05
2018-03-19T21:31:23.784Z,98530.84
2018-03-19T21:33:52.113Z,98530.52
2018-03-19T21:36:20.353Z,98539.38
2018-03-19T21:38:48.645Z,98536.33
2018-03-19T21:41:16.981Z,98541.80
2018-03-19T21:43:45.199Z,98543.77
2018-03-19T21:46:13.516Z,98539.50
2018-03-19T21:48:41.792Z,98540.81
2018-03-19T21:51:10.131Z,98547.81
2018-03-19T21:53:38.405Z,98548.22
2018-03-19T21:56:06.721Z,98545.08
2018-03-19T21:58:34.993Z,98549.28
2018-03-19T22:01:04.215Z,98553.18
2018-03-19T22:03:32.476Z,98553.28
2018-03-19T22:06:00.783Z,98557.89
2018-03-19T22:08:29.058Z,98560.31
2018-03-19T22:10:57.377Z,98557.92
2018-03-19T22:13:25.712Z,98559.36
2018-03-19T22:15:54.022Z,98560.05
2018-03-19T22:18:22.299Z,98561.75
2018-03-19T22:20:51.013Z,98560.59
2018-03-19T22:23:19.278Z,98565.67
2018-03-19T22:25:47.591Z,98561.16
2018-03-19T22:28:15.903Z,98560.70
2018-03-19T22:30:44.253Z,98566.36
2018-03-19T22:33:12.520Z,98567.39
2018-03-19T22:35:40.832Z,98573.14
2018-03-19T22:38:09.141Z,98565.78
2018-03-19T22:40:37.429Z,98564.12
2018-03-19T22:43:05.746Z,98561.61
2018-03-19T22:45:34.033Z,98565.64
2018-03-19T22:48:02.328Z,98567.80
2018-03-19T22:50:30.588Z,98560.95
2018-03-19T22:52:58.889Z,98574.34
2018-03-19T22:55:27.163Z,98578.48
2018-03-19T22:57:55.579Z,98579.55
2018-03-19T23:00:23.891Z,98575.28
2018-03-19T23:02:52.220Z,98574.88
2018-03-19T23:05:21.997Z,98576.36
2018-03-19T23:07:50.286Z,98570.43
2018-03-19T23:10:18.574Z,98571.09
2018-03-19T23:12:47.065Z,98571.73
2018-03-19T23:15:15.313Z,98575.56
2018-03-19T23:17:43.616Z,98580.23
2018-03-19T23:20:11.896Z,98581.75
2018-03-19T23:22:40.209Z,98580.05
2018-03-19T23:25:08.489Z,98582.42
2018-03-19T23:27:37.797Z,98576.81
2018-03-19T23:30:06.097Z,98585.15
2018-03-19T23:32:34.383Z,98587.70
2018-03-19T23:35:02.679Z,98584.75
2018-03-19T23:37:31.138Z,98590.45
2018-03-19T23:39:59.552Z,98594.12
2018-03-19T23:42:28.069Z,98589.63
2018-03-19T23:44:56.390Z,98585.24
2018-03-19T23:47:24.677Z,98582.11
2018-03-19T23:49:52.984Z,98590.50
2018-03-19T23:52:21.247Z,98583.19
2018-03-19T23:54:49.791Z,98583.50
2018-03-19T23:57:18.065Z,98586.36
2018-03-19T23:59:46.384Z,98589.10
